createdAt,value
2022-08-30T00:02:21.785Z,16.02
2022-08-30T00:07:27.793Z,15.72
2022-08-30T00:12:32.835Z,15.67
2022-08-30T00:17:35.314Z,16.01
2022-08-30T00:22:38.457Z,15.69
2022-08-30T00:27:43.722Z,14.62
2022-08-30T00:32:46.715Z,16.05
2022-08-30T00:37:50.853Z,16.02
2022-08-30T00:42:59.359Z,16.67
2022-08-30T00:48:02.645Z,15.13
2022-08-30T00:53:08.168Z,16.12
2022-08-30T00:58:19.908Z,16.06
2022-08-30T01:03:22.545Z,16.11
2022-08-30T01:08:25.072Z,15.73
2022-08-30T01:13:29.274Z,15.33
2022-08-30T01:18:32.890Z,15.25
2022-08-30T01:23:40.404Z,14.24
2022-08-30T01:28:43.519Z,14.50
2022-08-30T01:33:46.010Z,14.98
2022-08-30T01:38:52.446Z,14.58
2022-08-30T01:43:58.266Z,15.12
2022-08-30T01:49:01.458Z,14.73
2022-08-30T01:54:05.726Z,15.31
2022-08-30T01:59:08.346Z,14.10
2022-08-30T02:04:13.518Z,14.31
2022-08-30T02:09:17.393Z,15.27
2022-08-30T02:14:21.200Z,14.90
2022-08-30T02:19:23.806Z,15.31
2022-08-30T02:24:27.683Z,14.52
2022-08-30T02:29:30.216Z,15.02
2022-08-30T02:34:32.916Z,14.40
2022-08-30T02:39:36.756Z,15.34
2022-08-30T02:44:39.244Z,15.51
2022-08-30T02:49:41.920Z,14.38
2022-08-30T02:54:46.305Z,13.61
2022-08-30T02:59:51.009Z,13.79
2022-08-30T03:04:54.029Z,14.67
2022-08-30T03:09:58.378Z,14.70
2022-08-30T03:15:00.974Z,14.12
2022-08-30T03:20:04.828Z,14.42
2022-08-30T03:25:09.711Z,14.81
2022-08-30T03:30:13.702Z,14.63
2022-08-30T03:35:17.517Z,14.70
2022-08-30T03:40:23.602Z,15.10
2022-08-30T03:45:26.343Z,15.04
2022-08-30T03:50:29.118Z,15.23
2022-08-30T03:55:32.971Z,15.23
2022-08-30T04:00:35.499Z,14.84
2022-08-30T04:05:38.107Z,15.03
2022-08-30T04:10:41.930Z,14.92
2022-08-30T04:15:44.576Z,14.36
2022-08-30T04:20:47.602Z,14.98
2022-08-30T04:25:51.447Z,15.18
2022-08-30T04:30:53.999Z,15.12
2022-08-30T04:35:56.457Z,15.25
2022-08-30T04:41:00.823Z,15.29
2022-08-30T04:46:06.970Z,15.25
2022-08-30T04:51:11.864Z,15.37
2022-08-30T04:56:18.093Z,15.71
2022-08-30T05:01:23.719Z,15.81
2022-08-30T05:06:28.528Z,15.91
2022-08-30T05:11:32.615Z,16.36
2022-08-30T05:16:35.281Z,16.67
2022-08-30T05:21:40.574Z,16.28
2022-08-30T05:26:45.404Z,16.81
2022-08-30T05:31:47.981Z,16.43
2022-08-30T05:36:50.781Z,16.30
2022-08-30T05:41:57.172Z,15.88
2022-08-30T05:47:00.137Z,15.11
2022-08-30T05:52:02.694Z,15.49
2022-08-30T05:57:07.444Z,15.77
2022-08-30T06:02:10.051Z,16.09
2022-08-30T06:07:14.939Z,15.91
2022-08-30T06:12:20.931Z,15.71
2022-08-30T06:17:23.498Z,16.62
2022-08-30T06:22:26.054Z,16.71
2022-08-30T06:27:31.240Z,16.79
2022-08-30T06:32:34.011Z,16.99
2022-08-30T06:37:36.818Z,17.18
2022-08-30T06:42:40.811Z,17.05
2022-08-30T06:47:44.972Z,17.50
2022-08-30T06:52:47.720Z,17.75
2022-08-30T06:57:52.123Z,18.13
2022-08-30T07:02:54.797Z,18.56
2022-08-30T07:07:57.649Z,17.78
2022-08-30T07:13:01.463Z,18.43
2022-08-30T07:18:21.894Z,18.39
2022-08-30T07:23:24.938Z,18.74
2022-08-30T07:28:28.893Z,18.72
2022-08-30T07:33:31.680Z,18.91
2022-08-30T07:38:35.092Z,19.06
2022-08-30T07:43:39.755Z,19.36
2022-08-30T07:48:44.279Z,19.67
2022-08-30T07:53:47.472Z,20.14
2022-08-30T07:58:52.015Z,20.10
2022-08-30T08:03:54.560Z,20.18
2022-08-30T08:09:02.134Z,20.47
2022-08-30T08:14:06.101Z,20.56
2022-08-30T08:19:09.378Z,20.59
2022-08-30T08:24:12.460Z,20.94
2022-08-30T08:29:16.396Z,21.24
2022-08-30T08:34:23.298Z,21.50
2022-08-30T08:39:26.047Z,21.53
2022-08-30T08:44:50.770Z,21.62
2022-08-30T08:50:00.774Z,21.65
2022-08-30T08:55:10.261Z,21.94
2022-08-30T09:00:16.260Z,21.87
2022-08-30T09:05:22.937Z,22.05
2022-08-30T09:10:47.034Z,22.53
2022-08-30T09:15:55.202Z,21.99
2022-08-30T09:21:07.720Z,22.75
2022-08-30T09:26:10.865Z,22.93
2022-08-30T09:31:21.453Z,23.21
2022-08-30T09:36:28.209Z,23.21
2022-08-30T09:41:40.609Z,22.93
2022-08-30T09:46:50.801Z,23.24
2022-08-30T09:52:00.274Z,23.54
2022-08-30T09:57:13.246Z,23.49
2022-08-30T10:02:42.621Z,24.41
2022-08-30T10:07:55.645Z,23.97
2022-08-30T10:13:06.255Z,24.39
2022-08-30T10:18:18.191Z,24.59
2022-08-30T10:23:26.777Z,24.63
2022-08-30T10:28:35.971Z,24.23
2022-08-30T10:33:49.126Z,24.76
2022-08-30T10:38:56.190Z,26.78
2022-08-30T10:44:10.182Z,30.11
2022-08-30T10:49:42.971Z,33.20
2022-08-30T10:55:11.537Z,31.08
2022-08-30T11:00:23.310Z,32.28
2022-08-30T11:05:45.878Z,34.04
2022-08-30T11:10:56.864Z,29.56
2022-08-30T11:16:03.907Z,33.09
2022-08-30T11:21:25.763Z,31.14
2022-08-30T11:27:02.461Z,29.72
2022-08-30T11:32:21.946Z,27.48
2022-08-30T11:37:39.649Z,27.11
2022-08-30T11:42:45.741Z,26.74
2022-08-30T11:47:51.004Z,26.06
2022-08-30T11:53:01.719Z,26.20
2022-08-30T11:58:16.993Z,26.58
2022-08-30T12:03:33.650Z,28.95
2022-08-30T12:08:58.034Z,28.91
2022-08-30T12:14:17.242Z,28.57
2022-08-30T12:19:22.181Z,27.34
2022-08-30T12:24:29.239Z,26.88
2022-08-30T12:29:33.005Z,26.35
2022-08-30T12:34:50.033Z,25.58
2022-08-30T12:40:06.123Z,25.29
2022-08-30T12:45:14.629Z,25.52
2022-08-30T12:50:22.434Z,25.76
2022-08-30T12:55:29.397Z,25.30
2022-08-30T13:00:35.210Z,24.84
2022-08-30T13:05:48.575Z,25.02
2022-08-30T13:11:07.971Z,25.11
2022-08-30T13:16:21.764Z,25.25
2022-08-30T13:21:30.149Z,24.91
2022-08-30T13:26:36.359Z,25.29
2022-08-30T13:31:38.991Z,25.25
2022-08-30T13:36:47.947Z,25.56
2022-08-30T13:41:54.976Z,25.47
2022-08-30T13:47:35.692Z,24.59
2022-08-30T13:52:40.209Z,24.85
2022-08-30T13:57:59.381Z,24.65
2022-08-30T14:03:03.423Z,24.83
2022-08-30T14:08:44.187Z,24.69
2022-08-30T14:13:32.890Z,25.44
2022-08-30T14:18:35.582Z,26.31
2022-08-30T14:23:40.282Z,25.54
2022-08-30T14:28:46.082Z,25.14
2022-08-30T14:33:54.188Z,25.64
2022-08-30T14:38:56.841Z,24.67
2022-08-30T14:44:01.377Z,24.81
2022-08-30T14:49:05.781Z,25.44
2022-08-30T14:54:09.307Z,25.38
2022-08-30T14:59:14.148Z,25.32
2022-08-30T15:04:17.277Z,25.22
2022-08-30T15:09:23.487Z,25.53
2022-08-30T15:14:28.685Z,25.45
2022-08-30T15:19:31.841Z,25.74
2022-08-30T15:24:34.667Z,25.45
2022-08-30T15:29:38.580Z,25.33
2022-08-30T15:34:41.282Z,25.02
2022-08-30T15:39:43.797Z,25.04
2022-08-30T15:44:50.968Z,25.38
2022-08-30T15:49:57.051Z,24.86
2022-08-30T15:55:00.065Z,24.57
2022-08-30T16:00:06.485Z,24.51
2022-08-30T16:05:09.718Z,24.82
2022-08-30T16:10:12.187Z,24.56
2022-08-30T16:15:16.672Z,24.59
2022-08-30T16:20:19.632Z,24.82
2022-08-30T16:25:22.225Z,24.53
2022-08-30T16:30:27.554Z,24.58
2022-08-30T16:35:30.013Z,24.75
2022-08-30T16:40:32.551Z,24.17
2022-08-30T16:45:38.062Z,24.56
2022-08-30T16:50:47.986Z,23.97
2022-08-30T16:56:15.707Z,23.77
2022-08-30T17:01:28.279Z,23.60
2022-08-30T17:07:13.756Z,23.63
2022-08-30T17:12:51.859Z,23.57
2022-08-30T17:17:56.785Z,23.14
2022-08-30T17:23:02.036Z,23.29
2022-08-30T17:28:06.262Z,23.53
2022-08-30T17:33:11.132Z,24.11
2022-08-30T17:38:14.160Z,23.96
2022-08-30T17:43:16.762Z,24.02
2022-08-30T17:48:20.593Z,24.30
2022-08-30T17:53:23.137Z,24.28
2022-08-30T17:58:25.745Z,23.55
2022-08-30T18:03:31.185Z,22.94
2022-08-30T18:08:36.056Z,22.23
2022-08-30T18:13:38.794Z,22.22
2022-08-30T18:18:42.861Z,20.88
2022-08-30T18:23:45.766Z,20.22
2022-08-30T18:28:48.785Z,19.88
2022-08-30T18:33:52.837Z,19.73
2022-08-30T18:38:55.645Z,20.06
2022-08-30T18:44:17.052Z,19.75
2022-08-30T18:49:22.024Z,19.02
2022-08-30T18:54:24.998Z,19.44
2022-08-30T18:59:35.571Z,19.11
2022-08-30T19:04:42.779Z,19.04
2022-08-30T19:09:46.739Z,18.62
2022-08-30T19:14:49.793Z,18.33
2022-08-30T19:19:54.760Z,18.68
2022-08-30T19:24:57.282Z,19.20
2022-08-30T19:30:00.320Z,20.03
2022-08-30T19:35:05.373Z,19.46
2022-08-30T19:40:11.841Z,20.19
2022-08-30T19:45:18.103Z,19.46
2022-08-30T19:50:22.920Z,19.46
2022-08-30T19:55:29.982Z,19.81
2022-08-30T20:00:34.225Z,19.52
2022-08-30T20:05:40.297Z,20.12
2022-08-30T20:10:44.143Z,19.13
2022-08-30T20:15:46.801Z,18.48
2022-08-30T20:20:50.681Z,17.79
2022-08-30T20:25:55.538Z,17.52
2022-08-30T20:30:58.634Z,18.22
2022-08-30T20:36:03.328Z,18.67
2022-08-30T20:41:10.144Z,18.47
2022-08-30T20:46:15.481Z,19.19
2022-08-30T20:51:22.146Z,19.44
2022-08-30T20:56:27.732Z,19.39
2022-08-30T21:01:30.571Z,19.55
2022-08-30T21:06:37.383Z,19.56
2022-08-30T21:11:43.076Z,19.61
2022-08-30T21:16:47.407Z,19.61
2022-08-30T21:21:51.326Z,19.56
2022-08-30T21:26:55.556Z,19.54
2022-08-30T21:31:58.936Z,19.58
2022-08-30T21:37:02.727Z,19.40
2022-08-30T21:42:06.139Z,19.45
2022-08-30T21:47:08.648Z,19.48
2022-08-30T21:52:12.523Z,19.52
2022-08-30T21:57:16.867Z,19.30
2022-08-30T22:02:19.545Z,19.45
2022-08-30T22:07:23.451Z,19.61
2022-08-30T22:12:26.021Z,19.23
2022-08-30T22:17:28.596Z,17.94
2022-08-30T22:22:32.450Z,18.65
2022-08-30T22:27:35.083Z,19.04
2022-08-30T22:32:38.551Z,18.13
2022-08-30T22:37:42.579Z,18.81
2022-08-30T22:42:50.423Z,18.56
2022-08-30T22:47:53.025Z,18.34
2022-08-30T22:52:57.128Z,16.83
2022-08-30T22:57:59.847Z,17.83
2022-08-30T23:03:02.563Z,17.75
2022-08-30T23:08:07.885Z,18.27
2022-08-30T23:13:10.573Z,18.61
2022-08-30T23:18:13.255Z,18.71
2022-08-30T23:23:34.773Z,18.78
2022-08-30T23:28:54.604Z,18.34
2022-08-30T23:34:15.758Z,18.59
2022-08-30T23:39:37.248Z,18.60
2022-08-30T23:44:57.273Z,18.49
2022-08-30T23:50:17.546Z,18.30
2022-08-30T23:55:38.981Z,18.31
